Instrument Rating

REQUIREMENTS:
  • 17 Years of Age
  • Private Pilot Certificate
  • Read, speak & understand the English language
  • 3rd Class Medical Certificate
  • Pass Written, Oral & Flight Test
AVERAGE TRAINING ESTIMATE:
  • 15 Hours in a Katana DA-20
  • 25 Hours in Diamond Star DA-40
  • 60 Hours of Instrument Instruction
MATERIALS:
Instrument Pilot Kit & Charts

**Please Note: Times are ESTIMATED and TOTAL HOURS each student may need to achieve competency may vary per individual. Students will require approximately 45 hours of P.I.C. Cross Country time prior to course completion.

ASK ABOUT OUR FAA APPROVED PART 141 TRAINING PROGRAM FOR THIS COURSE!

 

NOAA Weather

Smyrna, TN

Last Updated on Jun 24 2017, 11:56 am CDT

Current Conditions: Partly Cloudy

NOAA Icon

Temp: 82°F

Wind: North at 9mph

Humidity: 60%

Heat Index: 84°F

Your 5-Day Forecast at a Glance

Available data for KMQY from the past 2 hours
SMYRNA, TN
Metar
KMQY 241556Z 36011KT 10SM SCT045 27/18 A3006 RMK AO2 SLP064 T02670183

15:56 UTC

Wind: 360° 11kt

Visibility: 10 SM

Sky: SCT 4500 ft

Temp: 27 deg C / 80.6 deg F

Dewpoint: 18 deg C / 64.4 deg F

Pressure: 30.06 inHg

TAF
KMQY 241120Z 2412/2512 32005KT P6SM BKN250 FM241800 33008G15KT P6SM SCT040 FM250000 35006KT P6SM SKC
Pirep (1)
BNA UA /OV RQZ002030/TM 1509/FL370/TP A320/TB LGT CHOP/IC ZTLFD